Alondra — 3FCU — position and weather

sailwx.info

Track history (hours):
 
Tides and Currents Weather Stations Pressure Air Temp Water Temp Dewpoint Dewpoint Depression Visibility Wind Speed Wind Dir Waves Ship Positions

Alondra

Last reported at 2018-Jun-18 10:30 UTC. Time now 2018-Jun-18 11:32 UTC.
Position N 52°54' E 003°14'.

Length 97 m; draft 4 m.

Type: Cargo ship. MMSI: 236404000.

Date/timePositionNaut miles runAvg speedWind from/ knotsBaromVisibWave heightAir tempDewpointWater temp
2018-Jun-18 10:30N 52°54' E 003°14'383 8.9
2018-Jun-16 15:32N 57°43' E 010°35'  
2018-Jun-13 22:56N 57°43' E 010°36'0 0.0
2018-Jun-13 22:26N 57°43' E 010°36'0 0.0
2018-Jun-13 21:20N 57°43' E 010°36'0 0.0
2018-Jun-13 10:24N 57°43' E 010°36'0 0.0
2018-Jun-13 10:00N 57°43' E 010°36'0 0.0
2018-Jun-13 09:06N 57°43' E 010°36'0 0.0
2018-Jun-13 09:00N 57°43' E 010°36'0 0.1
2018-Jun-13 08:08N 57°43' E 010°36'0 1.1
2018-Jun-13 07:43N 57°43' E 010°36'2 7.8
2018-Jun-13 07:26N 57°43' E 010°40'4 8.2
2018-Jun-13 06:56N 57°44' E 010°48'510.4
2018-Jun-13 06:28N 57°43' E 010°56'612.6
2018-Jun-13 06:00N 57°39' E 011°04'612.6
2018-Jun-13 05:30N 57°35' E 011°13'611.8
2018-Jun-13 05:00N 57°31' E 011°21'510.6
2018-Jun-13 04:30N 57°27' E 011°27'511.1
2018-Jun-13 04:00N 57°22' E 011°31'611.3
2018-Jun-13 03:27N 57°16' E 011°35'611.4
2018-Jun-13 02:58N 57°10' E 011°39'711.5
2018-Jun-13 02:20N 57°04' E 011°43'5711.8
2018-Jun-12 21:29N 56°11' E 012°24'613.2
2018-Jun-12 21:00N 56°07' E 012°33'612.7
2018-Jun-12 20:30N 56°02' E 012°40'612.4
2018-Jun-12 20:00N 55°56' E 012°44'612.4
2018-Jun-12 19:30N 55°50' E 012°43'5 9.7
2018-Jun-12 19:00N 55°45' E 012°42'5 9.7
2018-Jun-12 18:30N 55°40' E 012°42'5 9.3
2018-Jun-12 18:00N 55°36' E 012°42'611.2
2018-Jun-12 17:30N 55°30' E 012°43'713.3
2018-Jun-12 17:00N 55°23' E 012°42'611.2
2018-Jun-12 16:30N 55°18' E 012°44'712.2
2018-Jun-12 15:57N 55°16' E 012°56'712.4
2018-Jun-12 15:24N 55°15' E 013°07'1612.5
2018-Jun-12 14:05N 55°14' E 013°36'112.5
2018-Jun-12 13:59N 55°14' E 013°39'1012.5
2018-Jun-12 13:11N 55°13' E 013°56'512.6
2018-Jun-12 12:49N 55°13' E 014°04'412.5
2018-Jun-12 12:28N 55°13' E 014°12'511.4
2018-Jun-12 12:00N 55°15' E 014°20'712.5
2018-Jun-12 11:26N 55°21' E 014°28'512.4
2018-Jun-12 11:00N 55°25' E 014°33'612.5
2018-Jun-12 10:29N 55°29' E 014°42'612.7
2018-Jun-12 09:59N 55°32' E 014°52'1412.7
2018-Jun-12 08:53N 55°39' E 015°13'29213.0
2018-Jun-11 10:27N 59°07' E 021°34'613.5
2018-Jun-11 10:00N 59°11' E 021°42'1013.3
2018-Jun-11 09:15N 59°18' E 021°58'313.2
2018-Jun-11 09:00N 59°20' E 022°03'713.3
2018-Jun-11 08:30N 59°24' E 022°14'713.3
2018-Jun-11 08:00N 59°28' E 022°24'713.1
2018-Jun-11 07:29N 59°32' E 022°35'613.3
2018-Jun-11 07:00N 59°33' E 022°47'713.3
2018-Jun-11 06:30N 59°35' E 022°59'713.3
2018-Jun-11 06:00N 59°37' E 023°12'713.3
2018-Jun-11 05:30N 59°39' E 023°24'713.3
2018-Jun-11 05:00N 59°41' E 023°37'713.3
2018-Jun-11 04:30N 59°42' E 023°50'713.1
2018-Jun-11 04:00N 59°44' E 024°02'713.1
2018-Jun-11 03:30N 59°46' E 024°15'713.2
2018-Jun-11 03:00N 59°48' E 024°27'713.2
2018-Jun-11 02:30N 59°49' E 024°40'713.2
2018-Jun-11 02:00N 59°50' E 024°53'713.2
2018-Jun-11 01:30N 59°51' E 025°06'612.9
2018-Jun-11 01:00N 59°53' E 025°19'613.0
2018-Jun-11 00:30N 59°53' E 025°31'713.2
2018-Jun-11 00:00N 59°54' E 025°45'1413.2
2018-Jun-10 22:55N 59°58' E 026°12'613.0
2018-Jun-10 22:29N 59°60' E 026°23'612.6
2018-Jun-10 22:00N 60°01' E 026°35'713.4
2018-Jun-10 21:30N 60°00' E 026°48'713.3
2018-Jun-10 21:00N 59°59' E 027°01'612.8
2018-Jun-10 20:30N 60°02' E 027°12'713.3
2018-Jun-10 20:00N 60°06' E 027°24'713.3
2018-Jun-10 19:30N 60°09' E 027°35'713.1
2018-Jun-10 19:00N 60°12' E 027°47'713.5
2018-Jun-10 18:30N 60°10' E 028°00'611.3
2018-Jun-10 18:00N 60°06' E 028°08'713.1
2018-Jun-10 17:29N 59°59' E 028°09'613.5
2018-Jun-10 17:00N 59°53' E 028°11'713.5
2018-Jun-10 16:30N 59°47' E 028°14'510.3
2018-Jun-10 16:00N 59°42' E 028°19'3 5.7
2018-Jun-10 15:30N 59°41' E 028°24'1 1.2
2018-Jun-10 14:56N 59°41' E 028°25'0 0.0
2018-Jun-10 14:22N 59°41' E 028°25'0 0.0
2018-Jun-10 13:26N 59°41' E 028°25'0 0.0
2018-Jun-10 12:53N 59°41' E 028°25'0 0.0
2018-Jun-10 12:26N 59°41' E 028°25'0 0.0
2018-Jun-10 11:53N 59°41' E 028°25'0 0.0
2018-Jun-10 11:29N 59°41' E 028°25'0 0.0
2018-Jun-10 10:56N 59°41' E 028°25'0 0.0
2018-Jun-10 10:29N 59°41' E 028°25'0 0.0
2018-Jun-10 09:59N 59°41' E 028°25'0 0.0
2018-Jun-10 09:29N 59°41' E 028°25'0 0.0
2018-Jun-10 08:59N 59°41' E 028°25'0 0.0
2018-Jun-10 08:29N 59°41' E 028°25'0 0.0
2018-Jun-10 08:00N 59°41' E 028°25'0 0.0
2018-Jun-10 07:30N 59°41' E 028°25'0 0.0
2018-Jun-10 07:00N 59°41' E 028°25'0 0.0
2018-Jun-10 06:29N 59°41' E 028°25'0 0.0
2018-Jun-10 05:56N 59°41' E 028°25'0 0.0
2018-Jun-10 05:29N 59°41' E 028°25'0 0.0
2018-Jun-10 04:59N 59°41' E 028°25'0 0.0
2018-Jun-10 04:30N 59°41' E 028°25'0 0.0
2018-Jun-10 03:56N 59°41' E 028°25'0 0.0
2018-Jun-10 03:31N 59°41' E 028°25'0 0.0
2018-Jun-10 03:00N 59°41' E 028°25'0 0.0
2018-Jun-10 02:28N 59°41' E 028°25'0 0.0
2018-Jun-10 01:53N 59°41' E 028°25'0 0.0
2018-Jun-10 01:23N 59°41' E 028°25'0 0.0
2018-Jun-10 00:53N 59°41' E 028°25'0 0.0
2018-Jun-10 00:26N 59°41' E 028°25'0 0.0
2018-Jun-09 23:59N 59°41' E 028°25'0 0.0
2018-Jun-09 23:29N 59°41' E 028°25'0 0.0
2018-Jun-09 22:53N 59°41' E 028°25'0 0.0
2018-Jun-09 22:26N 59°41' E 028°25'0 0.0
2018-Jun-09 21:56N 59°41' E 028°25'0 0.0
2018-Jun-09 21:28N 59°41' E 028°25'0 0.0
2018-Jun-09 20:59N 59°41' E 028°25'0 0.0
2018-Jun-09 20:30N 59°41' E 028°25'0 0.0
2018-Jun-09 19:59N 59°41' E 028°25'0 0.0
2018-Jun-09 19:29N 59°41' E 028°25'0 0.0
2018-Jun-09 18:59N 59°41' E 028°25'0 0.0
2018-Jun-09 18:29N 59°41' E 028°25'0 0.0
2018-Jun-09 17:59N 59°41' E 028°25'0 0.0
2018-Jun-09 17:29N 59°41' E 028°25'0 0.0
2018-Jun-09 16:59N 59°41' E 028°25'0 0.0
2018-Jun-09 16:29N 59°41' E 028°25'0 0.0
2018-Jun-09 15:59N 59°41' E 028°25'0 0.0
2018-Jun-09 15:29N 59°41' E 028°25'0 0.0
2018-Jun-09 14:29N 59°41' E 028°25'0 0.0
2018-Jun-09 13:59N 59°41' E 028°25'0 0.0
2018-Jun-09 13:28N 59°41' E 028°25'0 0.0
2018-Jun-09 12:56N 59°41' E 028°25'0 0.0
2018-Jun-09 12:30N 59°41' E 028°25'0 0.2
2018-Jun-09 11:59N 59°41' E 028°25'3 5.9
2018-Jun-09 11:29N 59°43' E 028°23'510.4
2018-Jun-09 11:00N 59°48' E 028°25'612.3
2018-Jun-09 10:30N 59°54' E 028°30'5 8.9
2018-Jun-09 09:58N 59°56' E 028°39'0 0.1
2018-Jun-09 09:25N 59°56' E 028°39'0 0.0
2018-Jun-09 09:01N 59°56' E 028°39'0 0.0
2018-Jun-09 08:31N 59°56' E 028°39'0 0.0
2018-Jun-09 07:59N 59°56' E 028°39'0 0.0
2018-Jun-09 07:31N 59°56' E 028°39'0 0.0
2018-Jun-09 07:01N 59°56' E 028°39'0 0.0
2018-Jun-09 06:30N 59°56' E 028°39'0 0.0
2018-Jun-09 06:00N 59°56' E 028°39'2 4.8
2018-Jun-09 05:30N 59°57' E 028°35'5 9.5
2018-Jun-09 05:00N 60°02' E 028°35'612.6
2018-Jun-09 04:30N 60°04' E 028°23'611.2
2018-Jun-09 04:00N 60°07' E 028°14'611.9
2018-Jun-09 03:30N 60°09' E 028°02'611.9
2018-Jun-09 03:00N 60°10' E 027°51'611.2
2018-Jun-09 02:27N 60°08' E 027°39'511.7
2018-Jun-09 02:00N 60°06' E 027°29'612.0
2018-Jun-09 01:29N 60°03' E 027°19'713.6
2018-Jun-09 01:00N 59°59' E 027°07'510.7
2018-Jun-09 00:30N 59°58' E 026°57'611.4
2018-Jun-09 00:00N 59°59' E 026°46'713.4
2018-Jun-08 23:30N 59°58' E 026°32'611.2
2018-Jun-08 22:59N 59°57' E 026°21'611.6
2018-Jun-08 22:27N 59°55' E 026°09'612.1
2018-Jun-08 21:59N 59°54' E 025°58'912.2
2018-Jun-08 21:14N 59°51' E 025°41'312.1
2018-Jun-08 21:01N 59°51' E 025°35'612.1
2018-Jun-08 20:30N 59°49' E 025°24'612.2
2018-Jun-08 20:00N 59°48' E 025°12'612.1
2018-Jun-08 19:30N 59°47' E 024°60'612.1
2018-Jun-08 19:00N 59°46' E 024°48'612.2
2018-Jun-08 18:31N 59°45' E 024°36'612.3
2018-Jun-08 18:01N 59°43' E 024°25'612.4
2018-Jun-08 17:30N 59°41' E 024°13'612.5
2018-Jun-08 17:01N 59°39' E 024°01'612.2
2018-Jun-08 16:30N 59°37' E 023°49'612.4
2018-Jun-08 16:00N 59°36' E 023°38'612.6
2018-Jun-08 15:30N 59°34' E 023°26'612.5
2018-Jun-08 15:00N 59°32' E 023°14'612.4
2018-Jun-08 14:30N 59°30' E 023°03'612.4
2018-Jun-08 14:01N 59°28' E 022°51'612.4
2018-Jun-08 13:31N 59°26' E 022°40'612.5
2018-Jun-08 13:00N 59°22' E 022°30'612.3
2018-Jun-08 12:29N 59°18' E 022°20'812.5
2018-Jun-08 11:52N 59°13' E 022°08'512.4
2018-Jun-08 11:29N 59°10' E 022°01'612.4
2018-Jun-08 11:00N 59°06' E 021°52'  
Track history (hours):
 
Tides and Currents Weather Stations Pressure Air Temp Water Temp Dewpoint Dewpoint Depression Visibility Wind Speed Wind Dir Waves Ship Positions

Alondra

Last reported at 2018-Jun-18 10:30 UTC. Time now 2018-Jun-18 11:32 UTC.
Position N 52°54' E 003°14'.

Length 97 m; draft 4 m.

Type: Cargo ship. MMSI: 236404000.

Date/timePositionNaut miles runAvg speedWind from/ knotsBaromVisibWave heightAir tempDewpointWater temp
2018-Jun-18 10:30N 52°54' E 003°14'383 8.9
2018-Jun-16 15:32N 57°43' E 010°35'  
2018-Jun-13 22:56N 57°43' E 010°36'0 0.0
2018-Jun-13 22:26N 57°43' E 010°36'0 0.0
2018-Jun-13 21:20N 57°43' E 010°36'0 0.0
2018-Jun-13 10:24N 57°43' E 010°36'0 0.0
2018-Jun-13 10:00N 57°43' E 010°36'0 0.0
2018-Jun-13 09:06N 57°43' E 010°36'0 0.0
2018-Jun-13 09:00N 57°43' E 010°36'0 0.1
2018-Jun-13 08:08N 57°43' E 010°36'0 1.1
2018-Jun-13 07:43N 57°43' E 010°36'2 7.8
2018-Jun-13 07:26N 57°43' E 010°40'4 8.2
2018-Jun-13 06:56N 57°44' E 010°48'510.4
2018-Jun-13 06:28N 57°43' E 010°56'612.6
2018-Jun-13 06:00N 57°39' E 011°04'612.6
2018-Jun-13 05:30N 57°35' E 011°13'611.8
2018-Jun-13 05:00N 57°31' E 011°21'510.6
2018-Jun-13 04:30N 57°27' E 011°27'511.1
2018-Jun-13 04:00N 57°22' E 011°31'611.3
2018-Jun-13 03:27N 57°16' E 011°35'611.4
2018-Jun-13 02:58N 57°10' E 011°39'711.5
2018-Jun-13 02:20N 57°04' E 011°43'5711.8
2018-Jun-12 21:29N 56°11' E 012°24'613.2
2018-Jun-12 21:00N 56°07' E 012°33'612.7
2018-Jun-12 20:30N 56°02' E 012°40'612.4
2018-Jun-12 20:00N 55°56' E 012°44'612.4
2018-Jun-12 19:30N 55°50' E 012°43'5 9.7
2018-Jun-12 19:00N 55°45' E 012°42'5 9.7
2018-Jun-12 18:30N 55°40' E 012°42'5 9.3
2018-Jun-12 18:00N 55°36' E 012°42'611.2
2018-Jun-12 17:30N 55°30' E 012°43'713.3
2018-Jun-12 17:00N 55°23' E 012°42'611.2
2018-Jun-12 16:30N 55°18' E 012°44'712.2
2018-Jun-12 15:57N 55°16' E 012°56'712.4
2018-Jun-12 15:24N 55°15' E 013°07'1612.5
2018-Jun-12 14:05N 55°14' E 013°36'112.5
2018-Jun-12 13:59N 55°14' E 013°39'1012.5
2018-Jun-12 13:11N 55°13' E 013°56'512.6
2018-Jun-12 12:49N 55°13' E 014°04'412.5
2018-Jun-12 12:28N 55°13' E 014°12'511.4
2018-Jun-12 12:00N 55°15' E 014°20'712.5
2018-Jun-12 11:26N 55°21' E 014°28'512.4
2018-Jun-12 11:00N 55°25' E 014°33'612.5
2018-Jun-12 10:29N 55°29' E 014°42'612.7
2018-Jun-12 09:59N 55°32' E 014°52'1412.7
2018-Jun-12 08:53N 55°39' E 015°13'29213.0
2018-Jun-11 10:27N 59°07' E 021°34'613.5
2018-Jun-11 10:00N 59°11' E 021°42'1013.3
2018-Jun-11 09:15N 59°18' E 021°58'313.2
2018-Jun-11 09:00N 59°20' E 022°03'713.3
2018-Jun-11 08:30N 59°24' E 022°14'713.3
2018-Jun-11 08:00N 59°28' E 022°24'713.1
2018-Jun-11 07:29N 59°32' E 022°35'613.3
2018-Jun-11 07:00N 59°33' E 022°47'713.3
2018-Jun-11 06:30N 59°35' E 022°59'713.3
2018-Jun-11 06:00N 59°37' E 023°12'713.3
2018-Jun-11 05:30N 59°39' E 023°24'713.3
2018-Jun-11 05:00N 59°41' E 023°37'713.3
2018-Jun-11 04:30N 59°42' E 023°50'713.1
2018-Jun-11 04:00N 59°44' E 024°02'713.1
2018-Jun-11 03:30N 59°46' E 024°15'713.2
2018-Jun-11 03:00N 59°48' E 024°27'713.2
2018-Jun-11 02:30N 59°49' E 024°40'713.2
2018-Jun-11 02:00N 59°50' E 024°53'713.2
2018-Jun-11 01:30N 59°51' E 025°06'612.9
2018-Jun-11 01:00N 59°53' E 025°19'613.0
2018-Jun-11 00:30N 59°53' E 025°31'713.2
2018-Jun-11 00:00N 59°54' E 025°45'1413.2
2018-Jun-10 22:55N 59°58' E 026°12'613.0
2018-Jun-10 22:29N 59°60' E 026°23'612.6
2018-Jun-10 22:00N 60°01' E 026°35'713.4
2018-Jun-10 21:30N 60°00' E 026°48'713.3
2018-Jun-10 21:00N 59°59' E 027°01'612.8
2018-Jun-10 20:30N 60°02' E 027°12'713.3
2018-Jun-10 20:00N 60°06' E 027°24'713.3
2018-Jun-10 19:30N 60°09' E 027°35'713.1
2018-Jun-10 19:00N 60°12' E 027°47'713.5
2018-Jun-10 18:30N 60°10' E 028°00'611.3
2018-Jun-10 18:00N 60°06' E 028°08'713.1
2018-Jun-10 17:29N 59°59' E 028°09'613.5
2018-Jun-10 17:00N 59°53' E 028°11'713.5
2018-Jun-10 16:30N 59°47' E 028°14'510.3
2018-Jun-10 16:00N 59°42' E 028°19'3 5.7
2018-Jun-10 15:30N 59°41' E 028°24'1 1.2
2018-Jun-10 14:56N 59°41' E 028°25'0 0.0
2018-Jun-10 14:22N 59°41' E 028°25'0 0.0
2018-Jun-10 13:26N 59°41' E 028°25'0 0.0
2018-Jun-10 12:53N 59°41' E 028°25'0 0.0
2018-Jun-10 12:26N 59°41' E 028°25'0 0.0
2018-Jun-10 11:53N 59°41' E 028°25'0 0.0
2018-Jun-10 11:29N 59°41' E 028°25'0 0.0
2018-Jun-10 10:56N 59°41' E 028°25'0 0.0
2018-Jun-10 10:29N 59°41' E 028°25'0 0.0
2018-Jun-10 09:59N 59°41' E 028°25'0 0.0
2018-Jun-10 09:29N 59°41' E 028°25'0 0.0
2018-Jun-10 08:59N 59°41' E 028°25'0 0.0
2018-Jun-10 08:29N 59°41' E 028°25'0 0.0
2018-Jun-10 08:00N 59°41' E 028°25'0 0.0
2018-Jun-10 07:30N 59°41' E 028°25'0 0.0
2018-Jun-10 07:00N 59°41' E 028°25'0 0.0
2018-Jun-10 06:29N 59°41' E 028°25'0 0.0
2018-Jun-10 05:56N 59°41' E 028°25'0 0.0
2018-Jun-10 05:29N 59°41' E 028°25'0 0.0
2018-Jun-10 04:59N 59°41' E 028°25'0 0.0
2018-Jun-10 04:30N 59°41' E 028°25'0 0.0
2018-Jun-10 03:56N 59°41' E 028°25'0 0.0
2018-Jun-10 03:31N 59°41' E 028°25'0 0.0
2018-Jun-10 03:00N 59°41' E 028°25'0 0.0
2018-Jun-10 02:28N 59°41' E 028°25'0 0.0
2018-Jun-10 01:53N 59°41' E 028°25'0 0.0
2018-Jun-10 01:23N 59°41' E 028°25'0 0.0
2018-Jun-10 00:53N 59°41' E 028°25'0 0.0
2018-Jun-10 00:26N 59°41' E 028°25'0 0.0
2018-Jun-09 23:59N 59°41' E 028°25'0 0.0
2018-Jun-09 23:29N 59°41' E 028°25'0 0.0
2018-Jun-09 22:53N 59°41' E 028°25'0 0.0
2018-Jun-09 22:26N 59°41' E 028°25'0 0.0
2018-Jun-09 21:56N 59°41' E 028°25'0 0.0
2018-Jun-09 21:28N 59°41' E 028°25'0 0.0
2018-Jun-09 20:59N 59°41' E 028°25'0 0.0
2018-Jun-09 20:30N 59°41' E 028°25'0 0.0
2018-Jun-09 19:59N 59°41' E 028°25'0 0.0
2018-Jun-09 19:29N 59°41' E 028°25'0 0.0
2018-Jun-09 18:59N 59°41' E 028°25'0 0.0
2018-Jun-09 18:29N 59°41' E 028°25'0 0.0
2018-Jun-09 17:59N 59°41' E 028°25'0 0.0
2018-Jun-09 17:29N 59°41' E 028°25'0 0.0
2018-Jun-09 16:59N 59°41' E 028°25'0 0.0
2018-Jun-09 16:29N 59°41' E 028°25'0 0.0
2018-Jun-09 15:59N 59°41' E 028°25'0 0.0
2018-Jun-09 15:29N 59°41' E 028°25'0 0.0
2018-Jun-09 14:29N 59°41' E 028°25'0 0.0
2018-Jun-09 13:59N 59°41' E 028°25'0 0.0
2018-Jun-09 13:28N 59°41' E 028°25'0 0.0
2018-Jun-09 12:56N 59°41' E 028°25'0 0.0
2018-Jun-09 12:30N 59°41' E 028°25'0 0.2
2018-Jun-09 11:59N 59°41' E 028°25'3 5.9
2018-Jun-09 11:29N 59°43' E 028°23'510.4
2018-Jun-09 11:00N 59°48' E 028°25'612.3
2018-Jun-09 10:30N 59°54' E 028°30'5 8.9
2018-Jun-09 09:58N 59°56' E 028°39'0 0.1
2018-Jun-09 09:25N 59°56' E 028°39'0 0.0
2018-Jun-09 09:01N 59°56' E 028°39'0 0.0
2018-Jun-09 08:31N 59°56' E 028°39'0 0.0
2018-Jun-09 07:59N 59°56' E 028°39'0 0.0
2018-Jun-09 07:31N 59°56' E 028°39'0 0.0
2018-Jun-09 07:01N 59°56' E 028°39'0 0.0
2018-Jun-09 06:30N 59°56' E 028°39'0 0.0
2018-Jun-09 06:00N 59°56' E 028°39'2 4.8
2018-Jun-09 05:30N 59°57' E 028°35'5 9.5
2018-Jun-09 05:00N 60°02' E 028°35'612.6
2018-Jun-09 04:30N 60°04' E 028°23'611.2
2018-Jun-09 04:00N 60°07' E 028°14'611.9
2018-Jun-09 03:30N 60°09' E 028°02'611.9
2018-Jun-09 03:00N 60°10' E 027°51'611.2
2018-Jun-09 02:27N 60°08' E 027°39'511.7
2018-Jun-09 02:00N 60°06' E 027°29'612.0
2018-Jun-09 01:29N 60°03' E 027°19'713.6
2018-Jun-09 01:00N 59°59' E 027°07'510.7
2018-Jun-09 00:30N 59°58' E 026°57'611.4
2018-Jun-09 00:00N 59°59' E 026°46'713.4
2018-Jun-08 23:30N 59°58' E 026°32'611.2
2018-Jun-08 22:59N 59°57' E 026°21'611.6
2018-Jun-08 22:27N 59°55' E 026°09'612.1
2018-Jun-08 21:59N 59°54' E 025°58'912.2
2018-Jun-08 21:14N 59°51' E 025°41'312.1
2018-Jun-08 21:01N 59°51' E 025°35'612.1
2018-Jun-08 20:30N 59°49' E 025°24'612.2
2018-Jun-08 20:00N 59°48' E 025°12'612.1
2018-Jun-08 19:30N 59°47' E 024°60'612.1
2018-Jun-08 19:00N 59°46' E 024°48'612.2
2018-Jun-08 18:31N 59°45' E 024°36'612.3
2018-Jun-08 18:01N 59°43' E 024°25'612.4
2018-Jun-08 17:30N 59°41' E 024°13'612.5
2018-Jun-08 17:01N 59°39' E 024°01'612.2
2018-Jun-08 16:30N 59°37' E 023°49'612.4
2018-Jun-08 16:00N 59°36' E 023°38'612.6
2018-Jun-08 15:30N 59°34' E 023°26'612.5
2018-Jun-08 15:00N 59°32' E 023°14'612.4
2018-Jun-08 14:30N 59°30' E 023°03'612.4
2018-Jun-08 14:01N 59°28' E 022°51'612.4
2018-Jun-08 13:31N 59°26' E 022°40'612.5
2018-Jun-08 13:00N 59°22' E 022°30'612.3
2018-Jun-08 12:29N 59°18' E 022°20'812.5
2018-Jun-08 11:52N 59°13' E 022°08'512.4
2018-Jun-08 11:29N 59°10' E 022°01'612.4
2018-Jun-08 11:00N 59°06' E 021°52'  

Dump ship's entire track history